createdAt,value
2019-04-29T00:00:49.841Z,19.20
2019-04-29T00:05:55.762Z,19.10
2019-04-29T00:11:01.436Z,19.10
2019-04-29T00:16:23.751Z,19.00
2019-04-29T00:21:29.989Z,19.10
2019-04-29T00:26:37.512Z,19.10
2019-04-29T00:31:43.662Z,19.00
2019-04-29T00:37:05.531Z,19.00
2019-04-29T00:42:22.162Z,18.90
2019-04-29T00:47:28.967Z,18.90
2019-04-29T00:52:34.547Z,18.90
2019-04-29T00:57:40.242Z,18.90
2019-04-29T01:02:45.829Z,18.90
2019-04-29T01:07:53.106Z,18.90
2019-04-29T01:12:58.884Z,18.90
2019-04-29T01:18:04.870Z,18.90
2019-04-29T01:23:10.722Z,18.90
2019-04-29T01:28:22.520Z,18.90
2019-04-29T01:33:28.258Z,18.90
2019-04-29T01:38:33.894Z,18.90
2019-04-29T01:43:59.134Z,18.80
2019-04-29T01:49:05.511Z,18.80
2019-04-29T01:54:11.485Z,18.80
2019-04-29T01:59:17.543Z,18.80
2019-04-29T02:04:23.245Z,18.80
2019-04-29T02:09:47.528Z,18.80
2019-04-29T02:14:53.181Z,18.80
2019-04-29T02:19:58.641Z,18.80
2019-04-29T02:25:12.431Z,18.70
2019-04-29T02:30:41.995Z,18.60
2019-04-29T02:35:47.689Z,18.50
2019-04-29T02:41:02.332Z,18.40
2019-04-29T02:46:08.008Z,18.30
2019-04-29T02:51:16.418Z,18.20
2019-04-29T02:56:22.319Z,18.10
2019-04-29T03:01:45.693Z,18.10
2019-04-29T03:06:51.793Z,18.00
2019-04-29T03:12:01.648Z,18.00
2019-04-29T03:17:05.439Z,17.90
2019-04-29T03:22:11.430Z,17.80
2019-04-29T03:27:17.234Z,17.70
2019-04-29T03:32:23.118Z,17.70
2019-04-29T03:37:28.610Z,17.70
2019-04-29T03:42:34.417Z,17.60
2019-04-29T03:47:40.245Z,17.60
2019-04-29T03:52:45.906Z,17.50
2019-04-29T03:57:52.765Z,17.40
2019-04-29T04:03:18.651Z,17.40
2019-04-29T04:08:30.219Z,17.30
2019-04-29T04:13:36.034Z,17.30
2019-04-29T04:18:41.640Z,17.20
2019-04-29T04:23:47.476Z,17.10
2019-04-29T04:28:52.973Z,17.10
2019-04-29T04:33:58.716Z,17.00
2019-04-29T04:39:06.480Z,16.90
2019-04-29T04:44:13.947Z,16.90
2019-04-29T04:49:19.498Z,16.90
2019-04-29T04:54:25.177Z,16.90
2019-04-29T04:59:32.396Z,16.90
2019-04-29T05:04:38.113Z,16.90
2019-04-29T05:09:44.051Z,16.90
2019-04-29T05:14:49.934Z,17.00
2019-04-29T05:19:55.880Z,17.00
2019-04-29T05:25:01.382Z,17.10
2019-04-29T05:30:07.706Z,17.20
2019-04-29T05:35:15.281Z,17.20
2019-04-29T05:40:38.277Z,17.30
2019-04-29T05:46:09.642Z,17.30
2019-04-29T05:51:46.364Z,17.40
2019-04-29T05:56:52.015Z,17.40
2019-04-29T06:01:57.748Z,17.40
2019-04-29T06:07:03.533Z,17.40
2019-04-29T06:12:09.137Z,17.40
2019-04-29T06:17:15.068Z,17.40
2019-04-29T06:22:20.823Z,17.40
2019-04-29T06:27:26.665Z,17.40
2019-04-29T06:32:32.830Z,17.40
2019-04-29T06:37:38.417Z,17.40
2019-04-29T06:42:44.081Z,17.40
2019-04-29T06:47:49.781Z,17.40
2019-04-29T06:52:55.526Z,17.40
2019-04-29T06:58:01.157Z,17.40
2019-04-29T07:03:08.305Z,17.30
2019-04-29T07:08:14.003Z,17.30
2019-04-29T07:13:22.852Z,17.30
2019-04-29T07:18:27.081Z,17.20
2019-04-29T07:23:32.662Z,17.20
2019-04-29T07:28:38.608Z,17.10
2019-04-29T07:33:44.372Z,17.00
2019-04-29T07:38:51.272Z,17.00
2019-04-29T07:43:57.737Z,16.90
2019-04-29T07:49:05.698Z,16.90
2019-04-29T07:54:15.586Z,17.00
2019-04-29T07:59:17.924Z,17.00
2019-04-29T08:04:23.658Z,17.00
2019-04-29T08:09:29.413Z,17.00
2019-04-29T08:14:36.006Z,16.80
2019-04-29T08:19:41.623Z,16.80
2019-04-29T08:24:50.583Z,16.70
2019-04-29T08:29:54.667Z,16.70
2019-04-29T08:35:03.259Z,16.80
2019-04-29T08:40:16.087Z,16.90
2019-04-29T08:45:34.667Z,16.80
2019-04-29T08:50:40.216Z,16.80
2019-04-29T08:55:46.382Z,16.80
2019-04-29T09:00:55.773Z,16.80
2019-04-29T09:06:05.454Z,16.80
2019-04-29T09:11:08.196Z,16.80
2019-04-29T09:16:15.171Z,16.80
2019-04-29T09:21:20.659Z,16.80
2019-04-29T09:26:50.213Z,16.80
2019-04-29T09:31:56.211Z,16.80
2019-04-29T09:37:01.978Z,16.80
2019-04-29T09:42:26.799Z,16.80
2019-04-29T09:47:32.969Z,16.80
2019-04-29T09:52:38.778Z,16.80
2019-04-29T09:57:44.610Z,16.90
2019-04-29T10:03:12.152Z,17.00
2019-04-29T10:08:19.888Z,17.00
2019-04-29T10:13:25.948Z,17.10
2019-04-29T10:18:42.458Z,17.10
2019-04-29T10:24:06.789Z,17.20
2019-04-29T10:29:43.312Z,17.10
2019-04-29T10:34:57.704Z,17.20
2019-04-29T10:41:00.530Z,17.30
2019-04-29T10:46:56.141Z,17.30
2019-04-29T10:52:25.758Z,17.40
2019-04-29T10:58:01.845Z,17.40
2019-04-29T11:03:10.706Z,17.50
2019-04-29T11:08:39.341Z,17.50
2019-04-29T11:13:50.347Z,17.50
2019-04-29T11:18:55.083Z,17.50
2019-04-29T11:24:23.899Z,17.40
2019-04-29T11:29:29.912Z,17.50
2019-04-29T11:34:55.081Z,17.50
2019-04-29T11:40:00.904Z,17.50
2019-04-29T11:45:16.809Z,17.50
2019-04-29T11:50:58.518Z,17.60
2019-04-29T12:01:51.676Z,17.70
2019-04-29T12:07:20.953Z,17.70
2019-04-29T12:12:39.348Z,17.70
2019-04-29T12:18:04.887Z,17.80
2019-04-29T12:24:09.923Z,17.80
2019-04-29T12:29:48.710Z,17.90
2019-04-29T12:35:23.354Z,17.90
2019-04-29T12:41:32.861Z,18.00
2019-04-29T12:46:55.416Z,18.10
2019-04-29T12:52:35.079Z,18.20
2019-04-29T12:58:00.448Z,18.20
2019-04-29T13:03:36.541Z,18.20
2019-04-29T13:09:17.971Z,18.30
2019-04-29T13:15:02.230Z,18.30
2019-04-29T13:20:07.355Z,18.30
2019-04-29T13:25:15.653Z,18.40
2019-04-29T13:30:22.565Z,18.40
2019-04-29T13:35:28.211Z,18.40
2019-04-29T13:40:37.784Z,18.40
2019-04-29T13:45:47.320Z,18.40
2019-04-29T13:50:57.880Z,18.40
2019-04-29T13:56:11.621Z,18.50
2019-04-29T14:01:23.676Z,18.50
2019-04-29T14:06:26.778Z,18.50
2019-04-29T14:11:32.618Z,18.50
2019-04-29T14:16:43.057Z,18.60
2019-04-29T14:21:46.670Z,18.60
2019-04-29T14:26:52.506Z,18.60
2019-04-29T14:32:01.366Z,18.70
2019-04-29T14:37:21.195Z,18.60
2019-04-29T14:42:57.159Z,18.60
2019-04-29T14:48:14.041Z,18.60
2019-04-29T14:53:23.662Z,18.60
2019-04-29T14:58:27.297Z,18.60
2019-04-29T15:03:46.757Z,18.60
2019-04-29T15:08:51.899Z,18.60
2019-04-29T15:14:03.645Z,18.50
2019-04-29T15:19:26.878Z,18.50
2019-04-29T15:24:34.093Z,18.50
2019-04-29T15:29:40.156Z,18.40
2019-04-29T15:34:48.115Z,18.40
2019-04-29T15:39:54.002Z,18.30
2019-04-29T15:44:59.518Z,18.20
2019-04-29T15:50:18.251Z,18.10
2019-04-29T15:55:14.348Z,17.90
2019-04-29T16:05:56.090Z,17.80
2019-04-29T16:11:17.478Z,17.80
2019-04-29T16:16:23.173Z,17.70
2019-04-29T16:21:32.160Z,17.70
2019-04-29T16:26:36.291Z,17.70
2019-04-29T16:31:42.168Z,17.70
2019-04-29T16:36:49.838Z,17.80
2019-04-29T16:42:16.655Z,17.80
2019-04-29T16:47:22.700Z,17.80
2019-04-29T16:52:28.789Z,17.90
2019-04-29T16:57:34.573Z,18.00
2019-04-29T17:02:41.161Z,18.00
2019-04-29T17:07:47.848Z,18.00
2019-04-29T17:12:53.923Z,18.10
2019-04-29T17:17:59.630Z,18.10
2019-04-29T17:23:05.396Z,18.10
2019-04-29T17:28:25.811Z,18.10
2019-04-29T17:33:49.626Z,18.20
2019-04-29T17:35:15.455Z,17.90
2019-04-29T17:38:51.130Z,18.20
2019-04-29T17:44:19.965Z,18.20
2019-04-29T17:49:31.822Z,18.20
2019-04-29T17:54:40.403Z,18.20
2019-04-29T18:00:08.581Z,18.10
2019-04-29T18:05:52.969Z,18.10
2019-04-29T18:10:52.181Z,18.10
2019-04-29T18:16:03.432Z,18.00
2019-04-29T18:21:37.263Z,18.00
2019-04-29T18:26:49.595Z,18.00
2019-04-29T18:32:00.602Z,18.00
2019-04-29T18:37:06.532Z,18.00
2019-04-29T18:42:12.613Z,18.00
2019-04-29T18:47:22.491Z,18.00
2019-04-29T18:52:28.505Z,17.90
2019-04-29T18:57:35.767Z,17.90
2019-04-29T19:02:46.056Z,17.80
2019-04-29T19:07:55.305Z,17.80
2019-04-29T19:13:00.105Z,17.70
2019-04-29T19:18:07.629Z,17.70
2019-04-29T19:23:11.640Z,17.60
2019-04-29T19:28:25.255Z,17.60
2019-04-29T19:33:25.351Z,17.60
2019-04-29T19:38:32.027Z,17.60
2019-04-29T19:43:37.778Z,17.50
2019-04-29T19:48:45.007Z,17.50
2019-04-29T19:53:50.843Z,17.50
2019-04-29T19:58:58.049Z,17.50
2019-04-29T20:04:22.440Z,17.50
2019-04-29T20:09:29.440Z,17.50
2019-04-29T20:14:37.166Z,17.40
2019-04-29T20:19:55.242Z,17.40
2019-04-29T20:24:58.056Z,17.40
2019-04-29T20:30:15.811Z,17.40
2019-04-29T20:35:13.228Z,17.50
2019-04-29T20:40:19.322Z,17.80
2019-04-29T20:45:28.936Z,18.40
2019-04-29T20:50:35.219Z,18.80
2019-04-29T20:55:40.832Z,19.00
2019-04-29T21:00:46.957Z,19.10
2019-04-29T21:05:54.977Z,19.10
2019-04-29T21:11:02.497Z,19.10
2019-04-29T21:16:22.832Z,19.00
2019-04-29T21:21:28.638Z,18.90
2019-04-29T21:26:37.895Z,18.80
2019-04-29T21:31:41.516Z,18.60
2019-04-29T21:37:09.963Z,18.50
2019-04-29T21:42:29.686Z,18.30
2019-04-29T21:47:42.755Z,18.30
2019-04-29T21:52:40.155Z,18.10
2019-04-29T21:57:46.075Z,18.00
2019-04-29T22:02:52.089Z,17.90
2019-04-29T22:13:04.936Z,17.80
2019-04-29T22:18:13.612Z,17.80
2019-04-29T22:23:18.473Z,17.70
2019-04-29T22:28:24.844Z,17.60
2019-04-29T22:33:34.918Z,17.60
2019-04-29T22:38:37.621Z,17.60
2019-04-29T22:44:04.999Z,17.60
2019-04-29T22:54:17.573Z,17.50
2019-04-29T22:59:22.029Z,17.50
2019-04-29T23:04:27.433Z,17.50
2019-04-29T23:09:32.918Z,17.50
2019-04-29T23:14:40.288Z,17.40
2019-04-29T23:19:50.633Z,17.40
2019-04-29T23:25:29.903Z,17.50
2019-04-29T23:30:36.075Z,17.40
2019-04-29T23:35:41.597Z,17.40
2019-04-29T23:40:49.689Z,17.50
2019-04-29T23:45:59.070Z,17.50
2019-04-29T23:51:02.059Z,17.60
2019-04-29T23:56:09.675Z,17.60
